createdAt,value
2023-01-25T00:00:11.856Z,101364.22
2023-01-25T00:02:41.994Z,101377.13
2023-01-25T00:05:12.583Z,101366.38
2023-01-25T00:07:42.661Z,101368.88
2023-01-25T00:10:13.216Z,101377.69
2023-01-25T00:12:43.457Z,101377.16
2023-01-25T00:15:13.816Z,101372.72
2023-01-25T00:17:43.849Z,101383.19
2023-01-25T00:20:13.915Z,101385.41
2023-01-25T00:22:44.115Z,101390.88
2023-01-25T00:25:14.138Z,101403.28
2023-01-25T00:27:43.942Z,101406.88
2023-01-25T00:30:14.172Z,101409.63
2023-01-25T00:32:51.739Z,101410.97
2023-01-25T00:35:21.728Z,101412.38
2023-01-25T00:37:55.047Z,101417.03
2023-01-25T00:40:25.116Z,101429.38
2023-01-25T00:42:54.967Z,101423.88
2023-01-25T00:45:24.915Z,101431.59
2023-01-25T00:47:58.533Z,101429.91
2023-01-25T00:50:28.650Z,101433.22
2023-01-25T00:52:59.632Z,101440.66
2023-01-25T00:55:29.687Z,101445.03
2023-01-25T00:57:59.834Z,101446.69
2023-01-25T01:00:29.863Z,101442.59
2023-01-25T01:03:00.543Z,101445.84
2023-01-25T01:05:31.609Z,101463.72
2023-01-25T01:08:01.693Z,101458.50
2023-01-25T01:10:31.609Z,101465.09
2023-01-25T01:13:01.525Z,101477.47
2023-01-25T01:15:31.685Z,101474.97
2023-01-25T01:18:01.834Z,101480.47
2023-01-25T01:20:31.786Z,101484.06
2023-01-25T01:23:01.699Z,101488.44
2023-01-25T01:25:31.534Z,101491.75
2023-01-25T01:28:01.462Z,101493.66
2023-01-25T01:30:31.370Z,101501.34
2023-01-25T01:33:01.357Z,101501.09
2023-01-25T01:35:33.284Z,101512.34
2023-01-25T01:38:03.302Z,101510.69
2023-01-25T01:40:33.305Z,101518.13
2023-01-25T01:43:09.989Z,101529.38
2023-01-25T01:45:51.306Z,101528.81
2023-01-25T01:48:48.438Z,101532.41
2023-01-25T01:51:23.996Z,101539.81
2023-01-25T01:54:05.645Z,101551.34
2023-01-25T01:56:53.946Z,101557.09
2023-01-25T01:59:28.507Z,101554.13
2023-01-25T02:01:59.051Z,101558.75
2023-01-25T02:04:30.901Z,101556.00
2023-01-25T02:07:24.775Z,101569.19
2023-01-25T02:09:54.890Z,101565.91
2023-01-25T02:12:26.385Z,101567.00
2023-01-25T02:14:57.467Z,101573.59
2023-01-25T02:17:36.978Z,101570.03
2023-01-25T02:20:09.612Z,101574.16
2023-01-25T02:23:02.543Z,101575.78
2023-01-25T02:25:33.123Z,101588.72
2023-01-25T02:28:12.954Z,101588.16
2023-01-25T02:30:45.294Z,101583.78
2023-01-25T02:33:15.902Z,101587.34
2023-01-25T02:35:58.632Z,101583.78
2023-01-25T02:38:29.220Z,101591.19
2023-01-25T02:41:09.463Z,101584.88
2023-01-25T02:43:39.921Z,101589.78
2023-01-25T02:46:23.695Z,101587.59
2023-01-25T02:48:54.063Z,101582.06
2023-01-25T02:51:29.715Z,101584.28
2023-01-25T02:54:00.569Z,101587.59
2023-01-25T02:56:31.937Z,101583.75
2023-01-25T02:59:07.659Z,101587.03
2023-01-25T03:01:40.985Z,101579.34
2023-01-25T03:04:11.712Z,101576.03
2023-01-25T03:06:42.512Z,101580.44
2023-01-25T03:09:13.966Z,101585.94
2023-01-25T03:11:48.579Z,101571.09
2023-01-25T03:14:20.436Z,101575.22
2023-01-25T03:16:50.478Z,101569.13
2023-01-25T03:19:23.541Z,101568.63
2023-01-25T03:21:53.620Z,101562.84
2023-01-25T03:24:24.040Z,101560.63
2023-01-25T03:27:12.543Z,101562.53
2023-01-25T03:30:05.309Z,101565.03
2023-01-25T03:32:36.428Z,101566.66
2023-01-25T03:35:11.223Z,101560.34
2023-01-25T03:37:41.468Z,101557.03
2023-01-25T03:40:12.425Z,101561.19
2023-01-25T03:42:46.631Z,101555.38
2023-01-25T03:45:16.820Z,101550.19
2023-01-25T03:47:46.744Z,101550.19
2023-01-25T03:50:17.845Z,101549.88
2023-01-25T03:52:59.582Z,101544.63
2023-01-25T03:55:35.885Z,101539.97
2023-01-25T03:58:06.195Z,101533.06
2023-01-25T04:00:37.658Z,101531.97
2023-01-25T04:03:07.896Z,101530.56
2023-01-25T04:05:38.325Z,101521.81
2023-01-25T04:08:08.622Z,101516.03
2023-01-25T04:10:42.050Z,101501.16
2023-01-25T04:13:12.404Z,101506.38
2023-01-25T04:15:42.684Z,101497.31
2023-01-25T04:18:22.599Z,101492.63
2023-01-25T04:20:56.465Z,101492.34
2023-01-25T04:23:28.039Z,101484.09
2023-01-25T04:26:05.461Z,101476.41
2023-01-25T04:28:37.526Z,101482.13
2023-01-25T04:31:08.510Z,101476.34
2023-01-25T04:33:42.958Z,101472.47
2023-01-25T04:36:13.982Z,101461.22
2023-01-25T04:38:44.416Z,101449.63
2023-01-25T04:41:14.987Z,101446.59
2023-01-25T04:43:48.237Z,101441.91
2023-01-25T04:46:19.089Z,101440.78
2023-01-25T04:48:49.134Z,101430.38
2023-01-25T04:51:20.428Z,101416.63
2023-01-25T04:53:50.524Z,101421.53
2023-01-25T04:56:20.415Z,101420.13
2023-01-25T04:58:55.771Z,101416.84
2023-01-25T05:01:25.953Z,101416.84
2023-01-25T05:03:56.429Z,101405.31
2023-01-25T05:06:40.600Z,101400.34
2023-01-25T05:09:12.379Z,101397.59
2023-01-25T05:11:43.109Z,101395.91
2023-01-25T05:14:36.326Z,101392.88
2023-01-25T05:17:06.944Z,101388.78
2023-01-25T05:19:37.590Z,101377.78
2023-01-25T05:22:09.842Z,101371.16
2023-01-25T05:24:47.178Z,101357.72
2023-01-25T05:27:21.053Z,101353.00
2023-01-25T05:29:57.789Z,101364.84
2023-01-25T05:32:41.508Z,101354.09
2023-01-25T05:35:12.130Z,101346.94
2023-01-25T05:37:42.788Z,101346.94
2023-01-25T05:40:19.033Z,101329.31
2023-01-25T05:42:56.963Z,101321.28
2023-01-25T05:45:29.259Z,101315.00
2023-01-25T05:48:01.563Z,101310.59
2023-01-25T05:50:32.607Z,101305.63
2023-01-25T05:53:15.579Z,101296.25
2023-01-25T05:55:45.609Z,101297.38
2023-01-25T05:58:18.972Z,101287.19
2023-01-25T06:00:49.780Z,101272.63
2023-01-25T06:03:34.340Z,101266.59
2023-01-25T06:06:05.595Z,101261.63
2023-01-25T06:08:37.823Z,101258.56
2023-01-25T06:11:12.172Z,101248.34
2023-01-25T06:13:47.308Z,101238.19
2023-01-25T06:16:18.859Z,101233.50
2023-01-25T06:18:57.756Z,101232.38
2023-01-25T06:21:46.332Z,101216.97
2023-01-25T06:24:16.475Z,101217.50
2023-01-25T06:26:46.306Z,101206.50
2023-01-25T06:29:16.147Z,101204.59
2023-01-25T06:31:46.079Z,101206.50
2023-01-25T06:34:16.013Z,101194.19
2023-01-25T06:36:46.557Z,101193.88
2023-01-25T06:39:16.855Z,101184.50
2023-01-25T06:41:46.726Z,101186.44
2023-01-25T06:44:16.559Z,101183.38
2023-01-25T06:46:46.498Z,101178.19
2023-01-25T06:49:16.705Z,101174.03
2023-01-25T06:51:46.755Z,101170.16
2023-01-25T06:54:16.650Z,101169.34
2023-01-25T06:56:46.693Z,101160.00
2023-01-25T06:59:18.134Z,101159.16
2023-01-25T07:01:48.451Z,101147.03
2023-01-25T07:04:18.659Z,101143.19
2023-01-25T07:06:48.693Z,101138.19
2023-01-25T07:09:18.588Z,101140.94
2023-01-25T07:11:48.449Z,101134.34
2023-01-25T07:14:18.364Z,101139.00
2023-01-25T07:16:48.275Z,101132.69
2023-01-25T07:19:20.042Z,101131.88
2023-01-25T07:21:50.107Z,101129.41
2023-01-25T07:24:22.106Z,101115.34
2023-01-25T07:26:52.244Z,101121.97
2023-01-25T07:29:22.141Z,101114.56
2023-01-25T07:31:52.311Z,101107.94
2023-01-25T07:34:22.360Z,101106.28
2023-01-25T07:36:52.321Z,101098.03
2023-01-25T07:39:22.186Z,101100.47
2023-01-25T07:41:52.215Z,101104.06
2023-01-25T07:44:23.279Z,101090.22
2023-01-25T07:46:57.677Z,101097.16
2023-01-25T07:49:27.806Z,101088.88
2023-01-25T07:51:57.611Z,101092.47
2023-01-25T07:54:27.546Z,101092.97
2023-01-25T07:56:57.667Z,101091.34
2023-01-25T07:59:28.192Z,101084.22
2023-01-25T08:01:58.503Z,101066.88
2023-01-25T08:04:28.512Z,101077.06
2023-01-25T08:06:59.255Z,101069.09
2023-01-25T08:09:30.522Z,101067.72
2023-01-25T08:12:00.560Z,101066.88
2023-01-25T08:14:30.628Z,101063.00
2023-01-25T08:17:00.563Z,101057.50
2023-01-25T08:19:33.484Z,101061.38
2023-01-25T08:22:03.559Z,101066.28
2023-01-25T08:24:33.612Z,101070.97
2023-01-25T08:27:03.762Z,101073.44
2023-01-25T08:29:33.881Z,101068.19
2023-01-25T08:32:06.554Z,101062.69
2023-01-25T08:34:37.309Z,101066.81
2023-01-25T08:37:07.395Z,101058.56
2023-01-25T08:39:37.289Z,101053.34
2023-01-25T08:42:08.423Z,101049.47
2023-01-25T08:44:38.549Z,101051.41
2023-01-25T08:47:08.793Z,101045.69
2023-01-25T08:49:38.772Z,101047.31
2023-01-25T08:52:08.671Z,101053.84
2023-01-25T08:54:38.597Z,101050.56
2023-01-25T08:57:08.590Z,101057.44
2023-01-25T08:59:38.592Z,101059.06
2023-01-25T09:02:09.046Z,101051.63
2023-01-25T09:04:39.253Z,101051.63
2023-01-25T09:07:09.968Z,101056.59
2023-01-25T09:09:40.038Z,101058.25
2023-01-25T09:12:11.995Z,101046.63
2023-01-25T09:14:45.697Z,101058.44
2023-01-25T09:17:15.667Z,101061.81
2023-01-25T09:19:45.811Z,101057.97
2023-01-25T09:22:15.898Z,101052.47
2023-01-25T09:24:45.844Z,101059.56
2023-01-25T09:27:15.837Z,101050.81
2023-01-25T09:29:59.962Z,101055.50
2023-01-25T09:32:31.360Z,101056.31
2023-01-25T09:35:01.404Z,101056.59
2023-01-25T09:37:31.209Z,101061.00
2023-01-25T09:40:01.192Z,101062.63
2023-01-25T09:42:51.406Z,101062.63
2023-01-25T09:45:34.789Z,101062.94
2023-01-25T09:48:25.509Z,101073.94
2023-01-25T09:51:18.599Z,101076.38
2023-01-25T09:53:55.117Z,101080.78
2023-01-25T09:56:29.200Z,101079.66
2023-01-25T09:59:22.064Z,101082.41
2023-01-25T10:02:00.158Z,101083.00
2023-01-25T10:04:44.442Z,101096.50
2023-01-25T10:07:27.732Z,101095.97
2023-01-25T10:10:08.096Z,101094.59
2023-01-25T10:12:40.655Z,101101.16
2023-01-25T10:15:23.003Z,101110.84
2023-01-25T10:18:04.333Z,101109.72
2023-01-25T10:20:43.035Z,101112.47
2023-01-25T10:23:46.247Z,101124.59
2023-01-25T10:26:29.375Z,101111.41
2023-01-25T10:29:14.146Z,101121.53
2023-01-25T10:31:52.435Z,101126.50
2023-01-25T10:34:28.805Z,101132.53
2023-01-25T10:37:07.384Z,101137.25
2023-01-25T10:39:44.466Z,101139.47
2023-01-25T10:42:17.758Z,101144.75
2023-01-25T10:44:47.737Z,101144.75
2023-01-25T10:47:31.445Z,101149.63
2023-01-25T10:50:02.562Z,101156.78
2023-01-25T10:52:34.517Z,101159.53
2023-01-25T10:55:28.385Z,101158.19
2023-01-25T10:58:00.215Z,101159.00
2023-01-25T11:00:41.014Z,101163.13
2023-01-25T11:03:24.409Z,101165.03
2023-01-25T11:05:59.600Z,101166.16
2023-01-25T11:08:40.298Z,101173.59
2023-01-25T11:11:28.949Z,101181.84
2023-01-25T11:13:59.153Z,101181.03
2023-01-25T11:16:39.854Z,101184.31
2023-01-25T11:19:31.116Z,101184.59
2023-01-25T11:22:02.567Z,101181.91
2023-01-25T11:24:36.630Z,101182.44
2023-01-25T11:27:15.739Z,101192.03
2023-01-25T11:29:49.066Z,101201.38
2023-01-25T11:32:25.966Z,101194.28
2023-01-25T11:34:57.288Z,101192.91
2023-01-25T11:37:30.253Z,101203.13
2023-01-25T11:40:39.011Z,101209.75
2023-01-25T11:43:21.226Z,101211.13
2023-01-25T11:46:32.772Z,101221.53
2023-01-25T11:49:28.250Z,101219.63
2023-01-25T11:52:30.637Z,101219.63
2023-01-25T11:55:22.006Z,101225.13
2023-01-25T11:58:39.489Z,101238.06
2023-01-25T12:01:17.365Z,101242.97
2023-01-25T12:04:12.386Z,101244.97
2023-01-25T12:06:57.755Z,101255.16
2023-01-25T12:09:52.955Z,101257.91
2023-01-25T12:12:52.232Z,101265.34
2023-01-25T12:15:49.173Z,101261.47
2023-01-25T12:18:35.544Z,101268.41
2023-01-25T12:21:22.891Z,101270.63
2023-01-25T12:24:22.479Z,101285.19
2023-01-25T12:27:27.947Z,101287.94
2023-01-25T12:30:16.276Z,101299.25
2023-01-25T12:32:59.511Z,101299.78
2023-01-25T12:35:38.248Z,101306.38
2023-01-25T12:38:40.549Z,101306.66
2023-01-25T12:41:33.532Z,101318.50
2023-01-25T12:44:11.841Z,101322.06
2023-01-25T12:47:30.688Z,101327.56
2023-01-25T12:50:16.410Z,101330.88
2023-01-25T12:52:55.019Z,101327.34
2023-01-25T12:55:25.346Z,101336.38
2023-01-25T12:58:21.611Z,101348.47
2023-01-25T13:01:22.517Z,101356.50
2023-01-25T13:04:11.441Z,101345.47
2023-01-25T13:06:55.722Z,101357.91
2023-01-25T13:09:32.271Z,101364.22
2023-01-25T13:12:06.332Z,101373.00
2023-01-25T13:14:43.857Z,101373.81
2023-01-25T13:17:18.312Z,101377.38
2023-01-25T13:19:48.346Z,101378.19
2023-01-25T13:22:47.054Z,101384.88
2023-01-25T13:25:19.706Z,101386.22
2023-01-25T13:27:50.220Z,101380.19
2023-01-25T13:30:36.950Z,101388.19
2023-01-25T13:34:46.525Z,101393.69
2023-01-25T13:37:28.399Z,101391.75
2023-01-25T13:40:06.462Z,101395.91
2023-01-25T13:42:41.122Z,101397.56
2023-01-25T13:45:21.143Z,101395.38
2023-01-25T13:48:06.412Z,101386.59
2023-01-25T13:50:38.473Z,101392.09
2023-01-25T13:53:20.167Z,101394.31
2023-01-25T13:55:57.196Z,101393.50
2023-01-25T13:58:31.833Z,101386.63
2023-01-25T14:01:21.662Z,101391.34
2023-01-25T14:03:58.727Z,101389.97
2023-01-25T14:06:33.051Z,101381.72
2023-01-25T14:09:09.513Z,101391.38
2023-01-25T14:11:45.982Z,101392.19
2023-01-25T14:14:32.932Z,101389.75
2023-01-25T14:19:43.528Z,101388.41
2023-01-25T14:22:28.408Z,101391.97
2023-01-25T14:25:14.131Z,101389.44
2023-01-25T14:27:47.073Z,101391.09
2023-01-25T14:30:22.955Z,101390.53
2023-01-25T14:32:54.107Z,101387.78
2023-01-25T14:35:43.669Z,101396.56
2023-01-25T14:38:23.305Z,101397.09
2023-01-25T14:40:53.653Z,101395.44
2023-01-25T14:43:23.989Z,101396.56
2023-01-25T14:45:53.930Z,101400.94
2023-01-25T14:48:43.671Z,101396.78
2023-01-25T14:51:16.938Z,101402.28
2023-01-25T14:53:48.812Z,101396.78
2023-01-25T14:56:37.158Z,101396.56
2023-01-25T14:59:07.427Z,101402.59
2023-01-25T15:01:45.925Z,101400.94
2023-01-25T15:04:16.185Z,101405.34
2023-01-25T15:06:52.430Z,101404.22
2023-01-25T15:10:03.318Z,101407.00
2023-01-25T15:12:35.277Z,101405.88
2023-01-25T15:15:05.364Z,101408.34
2023-01-25T15:17:48.171Z,101395.69
2023-01-25T15:20:37.000Z,101403.94
2023-01-25T15:23:28.462Z,101409.19
2023-01-25T15:26:00.714Z,101405.88
2023-01-25T15:28:38.827Z,101402.03
2023-01-25T15:31:09.093Z,101400.94
2023-01-25T15:33:39.258Z,101397.91
2023-01-25T15:36:08.875Z,101396.00
2023-01-25T15:38:38.500Z,101402.88
2023-01-25T15:41:08.136Z,101397.06
2023-01-25T15:43:37.963Z,101399.81
2023-01-25T15:46:08.371Z,101392.16
2023-01-25T15:48:44.677Z,101393.81
2023-01-25T15:51:15.306Z,101397.09
2023-01-25T15:53:45.197Z,101395.16
2023-01-25T15:56:22.435Z,101391.59
2023-01-25T15:58:55.840Z,101388.31
2023-01-25T16:01:29.331Z,101386.66
2023-01-25T16:04:00.169Z,101387.19
2023-01-25T16:06:36.183Z,101379.53
2023-01-25T16:09:14.447Z,101380.63
2023-01-25T16:11:44.357Z,101383.38
2023-01-25T16:14:14.001Z,101378.72
2023-01-25T16:16:46.441Z,101377.88
2023-01-25T16:19:17.511Z,101378.41
2023-01-25T16:21:47.556Z,101381.47
2023-01-25T16:24:17.536Z,101374.59
2023-01-25T16:26:48.713Z,101371.56
2023-01-25T16:29:18.437Z,101368.28
2023-01-25T16:31:48.092Z,101369.94
2023-01-25T16:34:18.062Z,101360.03
2023-01-25T16:36:52.335Z,101359.50
2023-01-25T16:39:23.665Z,101365.53
2023-01-25T16:41:53.528Z,101359.50
2023-01-25T16:44:23.153Z,101360.84
2023-01-25T16:46:53.354Z,101354.53
2023-01-25T16:49:24.309Z,101352.31
2023-01-25T16:51:54.147Z,101353.16
2023-01-25T16:54:23.960Z,101348.81
2023-01-25T16:56:54.013Z,101348.25
2023-01-25T16:59:24.406Z,101351.59
2023-01-25T17:01:54.566Z,101340.81
2023-01-25T17:04:24.241Z,101345.78
2023-01-25T17:06:55.410Z,101341.91
2023-01-25T17:09:26.008Z,101338.63
2023-01-25T17:11:56.487Z,101346.34
2023-01-25T17:14:26.336Z,101354.34
2023-01-25T17:16:56.550Z,101349.09
2023-01-25T17:19:27.278Z,101340.59
2023-01-25T17:21:57.062Z,101334.78
2023-01-25T17:24:26.668Z,101335.84
2023-01-25T17:27:00.052Z,101338.38
2023-01-25T17:29:29.832Z,101332.34
2023-01-25T17:31:59.632Z,101331.28
2023-01-25T17:34:29.792Z,101332.09
2023-01-25T17:36:59.595Z,101340.06
2023-01-25T17:39:29.196Z,101336.75
2023-01-25T17:41:58.979Z,101336.22
2023-01-25T17:44:28.606Z,101337.06
2023-01-25T17:46:58.283Z,101328.81
2023-01-25T17:49:28.663Z,101330.19
2023-01-25T17:51:58.571Z,101330.50
2023-01-25T17:54:28.131Z,101328.56
2023-01-25T17:56:58.673Z,101327.44
2023-01-25T17:59:28.337Z,101325.53
2023-01-25T18:01:58.006Z,101330.19
2023-01-25T18:04:27.899Z,101326.94
2023-01-25T18:06:57.697Z,101320.03
2023-01-25T18:09:27.982Z,101318.09
2023-01-25T18:11:57.660Z,101317.06
2023-01-25T18:14:27.350Z,101310.19
2023-01-25T18:16:57.011Z,101312.34
2023-01-25T18:19:26.535Z,101307.16
2023-01-25T18:21:56.188Z,101295.63
2023-01-25T18:24:32.167Z,101290.13
2023-01-25T18:27:03.753Z,101288.75
2023-01-25T18:29:39.755Z,101292.53
2023-01-25T18:32:09.511Z,101289.25
2023-01-25T18:34:39.020Z,101280.78
2023-01-25T18:37:21.164Z,101273.31
2023-01-25T18:39:54.546Z,101263.19
2023-01-25T18:42:25.455Z,101262.56
2023-01-25T18:44:55.184Z,101256.84
2023-01-25T18:47:25.263Z,101263.75
2023-01-25T18:49:55.377Z,101257.72
2023-01-25T18:52:25.796Z,101252.53
2023-01-25T18:54:55.790Z,101256.59
2023-01-25T18:57:25.691Z,101257.75
2023-01-25T18:59:57.470Z,101251.41
2023-01-25T19:02:29.093Z,101247.03
2023-01-25T19:04:58.859Z,101250.81
2023-01-25T19:07:28.605Z,101244.53
2023-01-25T19:09:58.119Z,101236.88
2023-01-25T19:12:27.693Z,101239.88
2023-01-25T19:14:57.280Z,101240.47
2023-01-25T19:17:26.921Z,101234.97
2023-01-25T19:19:56.370Z,101234.97
2023-01-25T19:22:27.759Z,101226.72
2023-01-25T19:24:57.748Z,101220.91
2023-01-25T19:27:27.285Z,101216.84
2023-01-25T19:29:56.788Z,101209.69
2023-01-25T19:32:27.796Z,101211.63
2023-01-25T19:34:57.527Z,101193.19
2023-01-25T19:37:27.271Z,101199.22
2023-01-25T19:39:56.792Z,101199.00
2023-01-25T19:42:26.489Z,101193.50
2023-01-25T19:44:55.935Z,101192.97
2023-01-25T19:47:25.656Z,101177.53
2023-01-25T19:49:56.884Z,101179.75
2023-01-25T19:52:26.534Z,101185.31
2023-01-25T19:54:55.984Z,101178.69
2023-01-25T19:57:25.633Z,101179.75
2023-01-25T19:59:55.112Z,101177.59
2023-01-25T20:02:24.696Z,101175.66
2023-01-25T20:04:54.343Z,101174.84
2023-01-25T20:07:24.560Z,101175.94
2023-01-25T20:09:54.318Z,101172.13
2023-01-25T20:12:24.011Z,101173.19
2023-01-25T20:14:53.765Z,101167.47
2023-01-25T20:17:23.193Z,101164.44
2023-01-25T20:19:52.968Z,101172.38
2023-01-25T20:22:22.445Z,101168.81
2023-01-25T20:24:52.117Z,101158.69
2023-01-25T20:27:21.632Z,101159.69
2023-01-25T20:29:51.358Z,101157.28
2023-01-25T20:32:32.364Z,101155.66
2023-01-25T20:35:05.665Z,101146.28
2023-01-25T20:37:35.260Z,101145.06
2023-01-25T20:40:04.845Z,101149.53
2023-01-25T20:42:34.297Z,101146.25
2023-01-25T20:45:03.841Z,101140.81
2023-01-25T20:47:33.311Z,101147.72
2023-01-25T20:50:02.796Z,101143.09
2023-01-25T20:52:32.325Z,101140.84
2023-01-25T20:55:01.861Z,101143.84
2023-01-25T20:57:31.293Z,101142.47
2023-01-25T21:00:00.829Z,101145.22
2023-01-25T21:02:30.379Z,101143.09
2023-01-25T21:04:59.861Z,101146.63
2023-01-25T21:07:29.295Z,101144.69
2023-01-25T21:09:58.761Z,101143.91
2023-01-25T21:12:28.589Z,101148.59
2023-01-25T21:14:58.706Z,101146.88
2023-01-25T21:17:28.588Z,101150.50
2023-01-25T21:20:00.115Z,101142.78
2023-01-25T21:22:32.968Z,101147.44
2023-01-25T21:25:02.678Z,101143.59
2023-01-25T21:27:33.051Z,101143.00
2023-01-25T21:30:02.696Z,101142.78
2023-01-25T21:32:32.136Z,101148.06
2023-01-25T21:35:01.801Z,101145.88
2023-01-25T21:37:31.550Z,101151.03
2023-01-25T21:40:01.159Z,101149.38
2023-01-25T21:42:32.404Z,101152.97
2023-01-25T21:45:20.569Z,101162.25
2023-01-25T21:47:50.226Z,101160.13
2023-01-25T21:50:38.208Z,101156.84
2023-01-25T21:53:07.819Z,101161.78
2023-01-25T21:55:37.299Z,101160.16
2023-01-25T21:58:07.224Z,101169.22
2023-01-25T22:00:38.167Z,101171.16
2023-01-25T22:05:16.339Z,101182.13
2023-01-25T22:07:45.945Z,101172.81
2023-01-25T22:10:16.311Z,101175.84
2023-01-25T22:12:47.694Z,101182.72
2023-01-25T22:15:17.453Z,101185.47
2023-01-25T22:17:47.329Z,101184.41
2023-01-25T22:20:17.011Z,101176.97
2023-01-25T22:22:46.515Z,101182.25
2023-01-25T22:25:16.224Z,101180.25
2023-01-25T22:27:52.963Z,101188.19
2023-01-25T22:30:22.713Z,101183.28
2023-01-25T22:32:52.182Z,101188.50
2023-01-25T22:35:21.807Z,101188.78
2023-01-25T22:37:51.286Z,101189.06
2023-01-25T22:40:20.918Z,101193.78
2023-01-25T22:42:50.344Z,101199.28
2023-01-25T22:45:19.999Z,101196.53
2023-01-25T22:47:49.507Z,101207.53
2023-01-25T22:50:19.206Z,101205.88
2023-01-25T22:52:51.098Z,101216.31
2023-01-25T22:55:20.699Z,101212.72
2023-01-25T22:57:50.214Z,101222.38
2023-01-25T23:01:20.174Z,101222.16
2023-01-25T23:03:51.823Z,101233.75
2023-01-25T23:06:29.394Z,101223.34
2023-01-25T23:09:05.419Z,101225.34
2023-01-25T23:11:39.138Z,101231.94
2023-01-25T23:14:33.205Z,101234.91
2023-01-25T23:17:21.292Z,101237.41
2023-01-25T23:19:51.274Z,101241.78
2023-01-25T23:22:21.084Z,101250.03
2023-01-25T23:24:51.128Z,101250.81
2023-01-25T23:27:21.037Z,101256.06
2023-01-25T23:29:52.037Z,101253.31
2023-01-25T23:32:22.541Z,101255.75
2023-01-25T23:34:55.336Z,101257.66
2023-01-25T23:37:25.921Z,101265.91
2023-01-25T23:39:56.101Z,101275.28
2023-01-25T23:42:26.310Z,101277.72
2023-01-25T23:44:56.159Z,101276.38
2023-01-25T23:47:26.042Z,101277.75
2023-01-25T23:49:56.068Z,101278.28
2023-01-25T23:52:26.003Z,101287.63
2023-01-25T23:54:55.927Z,101282.97
2023-01-25T23:57:25.823Z,101287.63
2023-01-25T23:59:55.750Z,101288.72
